Yokota Air Base, Japan

3:52 AM JST on December 29, 2014 (GMT +0900)
Yokota Air Base | Change Station
CLOSE
Current Station
Airport
Location: Yokota AB,
Elevation: 456 ft
Nearby Weather Stations

Elev 456 ft 35.75 °N, 139.35 °E | Updated 17 minutes ago

Mostly Cloudy
Mostly Cloudy
36 °F
Feels Like 32 °F
N
5
Wind Variable Wind from North

Today
High -- | Low -- °F
--% Chance of Precip.
Yesterday
High -- | Low -- °F
Precip. -- in
6:51 AM 4:37 PM
Waxing Crescent, 50% visible
Pressure 29.93 in
Visibility 10.0 miles
Clouds Scattered Clouds 4700 ft
Mostly Cloudy 6000 ft
Windchill 32 °F
Dew Point 32 °F
Humidity 87%
Rainfall 0.00 in
Snow Depth Not available.
UV 0 out of 12
Pollen Not available.
Air Quality Not available.
Flu Activity Not available.
SPECI RJTY 281835Z AUTO 01004KT 10SM SCT047 BKN060 02/00 A2993 RMK AO2 PRESFR

More Conditions Fewer Conditions

Pressure 29.93 in
Visibility 10.0 miles
Clouds Scattered Clouds 4700 ft
Mostly Cloudy 6000 ft
Windchill 32 °F
Dew Point 32 °F
Humidity 87%
Rainfall 0.00 in
Snow Depth Not available.
UV 0 out of 12
Pollen Not available.
Air Quality Not available.
Flu Activity Not available.
SPECI RJTY 281835Z AUTO 01004KT 10SM SCT047 BKN060 02/00 A2993 RMK AO2 PRESFR

More Conditions Fewer Conditions

10-Day Weather Forecast

Almanac

Astronomy

Dec. 29, 2014 Rise Set
Actual Time
Civil Twilight
Nautical Twilight
Astronomical Twilight
Moon
Length of Visible Light
Length of Day
Tomorrow will be .
, % of the Moon is Illuminated

Today's Extremes

Country Highs Country Lows

Community

WunderPhotos

Upload Photos

1,781,383 photos uploaded!

WunderBlogs® & News

Nearby

Air Quality

  Air Quality AQ Index Pollutant
Not available.

Snow Depth

Station Depth Elevation

Earthquake Activity

City Distance Mag. Time & Date
Minimum magnitude displayed is 2.5.

Coastal Water Temperatures

Place Temperature

Nearby Weather Stations